Time;durP1;ratioP1;P1;durP2;ratioP2;P2;SDS_P1;SDS_P2;PMS_P1;PMS_P2;Temp;Humidity;BMP_temperature;BMP_pressure;BME280_temperature;BME280_humidity;BME280_pressure;Samples;Min_cycle;Max_cycle;Signal;HPM_P1;HPM_P2
2021/06/07 18:30:11;;;;;;;;;6.25;5.00;;;;;26.03;32.90;101694.09;4911597;23;46486;-85
2021/06/07 18:32:36;;;;;;;;;5.75;5.00;;;;;26.00;32.44;101706.63;4883119;29;45602;-86
2021/06/07 18:35:02;;;;;;;;;3.25;3.25;;;;;25.99;32.97;101741.28;4859713;29;46651;-87
2021/06/07 18:37:28;;;;;;;;;4.00;4.00;;;;;25.75;33.25;101710.06;4842479;29;45813;-85
2021/06/07 18:39:53;;;;;;;;;5.50;5.50;;;;;25.72;33.04;101708.44;4854865;29;46033;-84
2021/06/07 18:42:19;;;;;;;;;4.25;4.25;;;;;25.67;32.55;101707.88;4855716;29;45477;-88
2021/06/07 18:44:44;;;;;;;;;1.50;1.00;;;;;25.76;32.99;101707.28;4840020;29;47311;-89
2021/06/07 18:48:36;;;;;;;;;4.50;4.50;;;;;25.91;32.67;101707.25;4838499;29;46019;-85
2021/06/07 18:50:31;;;;;;;;;2.25;2.25;;;;;26.02;32.35;101685.28;4856917;29;45713;-84
2021/06/07 18:52:56;;;;;;;;;3.00;3.00;;;;;25.87;31.72;101669.41;4838574;29;45661;-86
2021/06/07 18:55:34;;;;;;;;;3.75;2.75;;;;;26.24;32.34;101753.78;4858082;29;46109;-84
2021/06/07 18:58:00;;;;;;;;;4.25;3.25;;;;;25.21;32.43;101626.75;4838294;29;45505;-85
2021/06/07 19:00:25;;;;;;;;;35.75;32.25;;;;;25.57;32.47;101733.28;4837985;29;45430;-85
2021/06/07 19:03:35;;;;;;;;;9.25;8.50;;;;;24.58;33.19;101625.28;4850440;29;45811;-83
2021/06/07 19:08:36;;;;;;;;;3.25;3.25;;;;;24.41;33.15;101682.81;4859538;26;46756;-83
2021/06/07 19:11:02;;;;;;;;;3.00;2.50;;;;;24.14;33.16;101685.25;4872899;29;45653;-82
2021/06/07 19:13:30;;;;;;;;;2.00;2.00;;;;;23.83;33.33;101646.38;4871150;29;45497;-82
2021/06/07 19:15:56;;;;;;;;;2.00;2.00;;;;;23.91;33.13;101690.97;4871122;29;45521;-83
2021/06/07 19:18:31;;;;;;;;;3.25;3.25;;;;;23.73;33.72;101680.50;4852010;29;45594;-81
2021/06/07 19:21:07;;;;;;;;;;;;;;;;;;;;;
2021/06/07 19:23:51;;;;;;;;;5.50;3.00;;;;;23.55;34.36;101697.41;4854640;29;60446;-84
2021/06/07 19:26:22;;;;;;;;;3.75;3.00;;;;;23.78;34.30;101749.03;4848846;29;45514;-82
2021/06/07 19:28:56;;;;;;;;;3.00;3.00;;;;;23.21;34.97;101690.34;4836558;29;45561;-81
2021/06/07 19:31:22;;;;;;;;;5.25;5.25;;;;;23.44;35.41;101742.97;4851167;29;45602;-83
2021/06/07 19:33:47;;;;;;;;;2.75;2.75;;;;;23.31;35.31;101748.03;4850917;29;45646;-83
2021/06/07 19:36:13;;;;;;;;;0.50;0.50;;;;;23.03;35.53;101707.22;4852379;29;45682;-83
2021/06/07 19:38:39;;;;;;;;;2.00;2.00;;;;;23.23;35.66;101767.81;4880918;29;45462;-84
2021/06/07 19:41:08;;;;;;;;;3.75;3.00;;;;;23.02;36.13;101743.38;4852098;29;45736;-82
2021/06/07 19:43:33;;;;;;;;;2.25;2.25;;;;;23.05;35.96;101759.06;4852011;29;45934;-81
2021/06/07 19:45:59;;;;;;;;;3.50;3.00;;;;;22.88;36.07;101755.53;4851003;29;45552;-81
2021/06/07 19:48:24;;;;;;;;;2.00;2.00;;;;;22.84;35.79;101750.47;4847969;29;45482;-84
2021/06/07 19:50:50;;;;;;;;;1.75;1.75;;;;;22.79;35.47;101760.44;4866907;29;45509;-81
2021/06/07 19:53:16;;;;;;;;;2.75;2.75;;;;;22.79;35.77;101776.28;4851005;29;45555;-82
2021/06/07 19:58:07;;;;;;;;;5.25;3.50;;;;;22.48;35.29;101755.75;4865110;29;45579;-81
2021/06/07 20:00:33;;;;;;;;;2.75;2.50;;;;;22.40;35.30;101756.13;4851502;29;45653;-82
2021/06/07 20:02:59;;;;;;;;;2.00;2.00;;;;;22.29;35.60;101753.19;4851425;29;45568;-82
2021/06/07 20:05:24;;;;;;;;;2.75;2.50;;;;;22.24;35.70;101756.03;4850818;29;47375;-82
2021/06/07 20:07:50;;;;;;;;;4.00;2.00;;;;;22.18;35.68;101754.53;4835369;29;45478;-81
2021/06/07 20:10:15;;;;;;;;;1.75;1.75;;;;;22.29;35.84;101783.06;4835507;29;45431;-82
2021/06/07 20:12:41;;;;;;;;;2.75;2.75;;;;;22.08;35.92;101753.28;4852527;29;45871;-83
2021/06/07 20:15:07;;;;;;;;;3.00;2.00;;;;;22.16;36.34;101789.88;4849502;29;46866;-81
2021/06/07 20:17:33;;;;;;;;;3.00;3.00;;;;;21.93;37.83;101762.81;4849310;29;45534;-82
2021/06/07 20:19:59;;;;;;;;;2.25;2.25;;;;;21.92;38.30;101772.50;4851461;29;46108;-81
2021/06/07 20:22:25;;;;;;;;;3.50;2.25;;;;;21.87;38.62;101782.44;4850411;29;45421;-81
2021/06/07 20:24:52;;;;;;;;;4.00;2.25;;;;;21.89;37.84;101796.41;4851044;29;46214;-84
2021/06/07 20:27:18;;;;;;;;;4.00;3.25;;;;;21.66;38.54;101761.34;4864578;29;45616;-85
2021/06/07 20:29:44;;;;;;;;;3.00;2.50;;;;;21.77;38.10;101794.31;4851382;29;45548;-84
2021/06/07 20:32:09;;;;;;;;;4.50;3.75;;;;;21.56;38.40;101774.13;4851174;29;45744;-81
2021/06/07 20:34:35;;;;;;;;;3.00;3.00;;;;;21.52;40.21;101762.00;4835104;29;48215;-81
2021/06/07 20:37:00;;;;;;;;;3.00;3.00;;;;;21.38;40.00;101762.63;4850480;29;45639;-81
2021/06/07 20:39:26;;;;;;;;;4.00;4.00;;;;;21.45;39.64;101786.94;4850300;29;45582;-81
2021/06/07 20:41:52;;;;;;;;;2.50;2.00;;;;;21.35;40.35;101791.78;4851352;29;45828;-81
2021/06/07 20:44:18;;;;;;;;;2.50;2.50;;;;;21.37;40.10;101802.25;4850394;29;45487;-81
2021/06/07 20:46:43;;;;;;;;;2.75;2.75;;;;;21.29;40.71;101799.97;4853238;29;45839;-82
2021/06/07 20:49:11;;;;;;;;;4.25;4.25;;;;;21.16;40.76;101792.59;4850744;29;45621;-83
2021/06/07 20:51:37;;;;;;;;;7.00;4.00;;;;;21.17;40.54;101796.94;4851150;29;46170;-81
2021/06/07 20:54:03;;;;;;;;;3.00;2.25;;;;;21.00;40.64;101775.72;4850518;29;46515;-81
2021/06/07 20:56:29;;;;;;;;;3.50;3.50;;;;;20.78;41.13;101755.53;4848517;29;45596;-82
2021/06/07 20:58:54;;;;;;;;;4.00;4.00;;;;;21.05;40.68;101800.09;4850730;29;45535;-82
2021/06/07 21:01:20;;;;;;;;;3.75;3.50;;;;;20.83;41.53;101778.13;4850973;29;45511;-81
2021/06/07 21:03:48;;;;;;;;;5.00;4.00;;;;;20.82;41.34;101786.97;4849639;29;45585;-82
2021/06/07 21:06:14;;;;;;;;;5.50;5.00;;;;;20.56;41.24;101746.75;4850902;29;45880;-82
2021/06/07 21:08:39;;;;;;;;;5.00;5.00;;;;;20.57;42.62;101760.81;4850358;29;46743;-82
2021/06/07 21:11:05;;;;;;;;;4.00;4.00;;;;;20.62;42.65;101779.91;4847489;29;45499;-81
2021/06/07 21:13:32;;;;;;;;;4.00;4.00;;;;;20.66;42.15;101797.31;4848647;29;46684;-79
